sensor_id;sensor_type;location;lat;lon;timestamp;P1;durP1;ratioP1;P2;durP2;ratioP2
5754;SDS011;2902;42.130;24.732;2024-01-30T00:00:24;6.30;;;5.80;;
5754;SDS011;2902;42.130;24.732;2024-01-30T00:02:51;6.57;;;6.07;;
5754;SDS011;2902;42.130;24.732;2024-01-30T00:05:17;7.50;;;6.33;;
5754;SDS011;2902;42.130;24.732;2024-01-30T00:07:45;6.47;;;5.87;;
5754;SDS011;2902;42.130;24.732;2024-01-30T00:10:12;6.97;;;5.57;;
5754;SDS011;2902;42.130;24.732;2024-01-30T00:12:39;7.27;;;5.83;;
5754;SDS011;2902;42.130;24.732;2024-01-30T00:15:05;6.70;;;6.20;;
5754;SDS011;2902;42.130;24.732;2024-01-30T00:17:34;7.57;;;6.97;;
5754;SDS011;2902;42.130;24.732;2024-01-30T00:20:01;6.60;;;6.00;;
5754;SDS011;2902;42.130;24.732;2024-01-30T00:22:30;6.17;;;5.57;;
5754;SDS011;2902;42.130;24.732;2024-01-30T00:24:58;5.87;;;5.37;;
5754;SDS011;2902;42.130;24.732;2024-01-30T00:27:25;9.47;;;6.00;;
5754;SDS011;2902;42.130;24.732;2024-01-30T00:29:52;6.73;;;6.13;;
5754;SDS011;2902;42.130;24.732;2024-01-30T00:32:19;9.00;;;6.10;;
5754;SDS011;2902;42.130;24.732;2024-01-30T00:34:46;8.33;;;7.57;;
5754;SDS011;2902;42.130;24.732;2024-01-30T00:37:12;6.53;;;6.10;;
5754;SDS011;2902;42.130;24.732;2024-01-30T00:39:39;6.30;;;5.80;;
5754;SDS011;2902;42.130;24.732;2024-01-30T00:42:07;6.77;;;6.17;;
5754;SDS011;2902;42.130;24.732;2024-01-30T00:44:34;6.40;;;5.80;;
5754;SDS011;2902;42.130;24.732;2024-01-30T00:47:03;5.70;;;5.30;;
5754;SDS011;2902;42.130;24.732;2024-01-30T00:49:30;7.03;;;6.23;;
5754;SDS011;2902;42.130;24.732;2024-01-30T00:51:57;6.70;;;6.00;;
5754;SDS011;2902;42.130;24.732;2024-01-30T00:54:24;6.07;;;5.70;;
5754;SDS011;2902;42.130;24.732;2024-01-30T00:56:50;6.63;;;6.13;;
5754;SDS011;2902;42.130;24.732;2024-01-30T00:59:18;6.70;;;6.03;;
5754;SDS011;2902;42.130;24.732;2024-01-30T01:01:45;6.43;;;5.83;;
5754;SDS011;2902;42.130;24.732;2024-01-30T01:04:12;7.30;;;6.60;;
5754;SDS011;2902;42.130;24.732;2024-01-30T01:06:39;8.07;;;6.80;;
5754;SDS011;2902;42.130;24.732;2024-01-30T01:09:07;6.80;;;6.17;;
5754;SDS011;2902;42.130;24.732;2024-01-30T01:11:34;7.57;;;6.80;;
5754;SDS011;2902;42.130;24.732;2024-01-30T01:14:01;8.00;;;7.20;;
5754;SDS011;2902;42.130;24.732;2024-01-30T01:16:29;11.40;;;6.30;;
5754;SDS011;2902;42.130;24.732;2024-01-30T01:18:56;7.23;;;6.73;;
5754;SDS011;2902;42.130;24.732;2024-01-30T01:21:23;6.80;;;6.20;;
5754;SDS011;2902;42.130;24.732;2024-01-30T01:23:49;7.17;;;6.43;;
5754;SDS011;2902;42.130;24.732;2024-01-30T01:26:16;6.80;;;6.20;;
5754;SDS011;2902;42.130;24.732;2024-01-30T01:28:43;6.93;;;6.33;;
5754;SDS011;2902;42.130;24.732;2024-01-30T01:31:09;8.00;;;7.30;;
5754;SDS011;2902;42.130;24.732;2024-01-30T01:33:38;7.83;;;6.90;;
5754;SDS011;2902;42.130;24.732;2024-01-30T01:36:05;8.20;;;6.87;;
5754;SDS011;2902;42.130;24.732;2024-01-30T01:38:31;7.83;;;7.13;;
5754;SDS011;2902;42.130;24.732;2024-01-30T01:40:58;7.13;;;6.03;;
5754;SDS011;2902;42.130;24.732;2024-01-30T01:43:25;6.33;;;5.87;;
5754;SDS011;2902;42.130;24.732;2024-01-30T01:45:52;7.07;;;6.00;;
5754;SDS011;2902;42.130;24.732;2024-01-30T01:48:18;6.77;;;5.77;;
5754;SDS011;2902;42.130;24.732;2024-01-30T01:50:47;12.63;;;7.10;;
5754;SDS011;2902;42.130;24.732;2024-01-30T01:53:14;6.90;;;6.40;;
5754;SDS011;2902;42.130;24.732;2024-01-30T01:55:42;7.57;;;6.10;;
5754;SDS011;2902;42.130;24.732;2024-01-30T01:58:09;12.37;;;7.27;;
5754;SDS011;2902;42.130;24.732;2024-01-30T02:00:38;10.23;;;7.13;;
5754;SDS011;2902;42.130;24.732;2024-01-30T02:03:06;10.27;;;7.93;;
5754;SDS011;2902;42.130;24.732;2024-01-30T02:05:36;9.30;;;7.70;;
5754;SDS011;2902;42.130;24.732;2024-01-30T02:08:05;8.73;;;7.43;;
5754;SDS011;2902;42.130;24.732;2024-01-30T02:10:32;11.17;;;7.70;;
5754;SDS011;2902;42.130;24.732;2024-01-30T02:12:59;10.37;;;7.30;;
5754;SDS011;2902;42.130;24.732;2024-01-30T02:15:26;8.43;;;7.40;;
5754;SDS011;2902;42.130;24.732;2024-01-30T02:17:54;10.87;;;8.17;;
5754;SDS011;2902;42.130;24.732;2024-01-30T02:20:21;9.77;;;8.27;;
5754;SDS011;2902;42.130;24.732;2024-01-30T02:22:51;9.07;;;7.93;;
5754;SDS011;2902;42.130;24.732;2024-01-30T02:25:19;10.47;;;7.87;;
5754;SDS011;2902;42.130;24.732;2024-01-30T02:27:45;9.10;;;8.20;;
5754;SDS011;2902;42.130;24.732;2024-01-30T02:30:12;9.57;;;8.03;;
5754;SDS011;2902;42.130;24.732;2024-01-30T02:32:39;8.37;;;7.37;;
5754;SDS011;2902;42.130;24.732;2024-01-30T02:35:06;9.47;;;6.70;;
5754;SDS011;2902;42.130;24.732;2024-01-30T02:37:33;10.30;;;7.47;;
5754;SDS011;2902;42.130;24.732;2024-01-30T02:40:01;9.17;;;7.80;;
5754;SDS011;2902;42.130;24.732;2024-01-30T02:42:27;9.57;;;8.50;;
5754;SDS011;2902;42.130;24.732;2024-01-30T02:44:54;8.30;;;7.37;;
5754;SDS011;2902;42.130;24.732;2024-01-30T02:47:21;8.17;;;7.40;;
5754;SDS011;2902;42.130;24.732;2024-01-30T02:49:47;9.40;;;7.83;;
5754;SDS011;2902;42.130;24.732;2024-01-30T02:52:14;8.27;;;7.47;;
5754;SDS011;2902;42.130;24.732;2024-01-30T02:54:41;8.87;;;7.97;;
5754;SDS011;2902;42.130;24.732;2024-01-30T02:57:09;8.30;;;7.50;;
5754;SDS011;2902;42.130;24.732;2024-01-30T02:59:36;8.80;;;8.00;;
5754;SDS011;2902;42.130;24.732;2024-01-30T03:02:02;8.83;;;8.03;;
5754;SDS011;2902;42.130;24.732;2024-01-30T03:04:29;12.17;;;8.97;;
5754;SDS011;2902;42.130;24.732;2024-01-30T03:06:56;9.20;;;7.87;;
5754;SDS011;2902;42.130;24.732;2024-01-30T03:09:23;8.80;;;7.80;;
5754;SDS011;2902;42.130;24.732;2024-01-30T03:11:49;9.27;;;8.20;;
5754;SDS011;2902;42.130;24.732;2024-01-30T03:14:17;9.60;;;7.50;;
5754;SDS011;2902;42.130;24.732;2024-01-30T03:16:44;15.13;;;9.03;;
5754;SDS011;2902;42.130;24.732;2024-01-30T03:19:11;9.40;;;8.37;;
5754;SDS011;2902;42.130;24.732;2024-01-30T03:21:37;8.97;;;8.13;;
5754;SDS011;2902;42.130;24.732;2024-01-30T03:24:04;9.57;;;7.70;;
5754;SDS011;2902;42.130;24.732;2024-01-30T03:26:31;9.67;;;8.77;;
5754;SDS011;2902;42.130;24.732;2024-01-30T03:28:58;15.13;;;9.00;;
5754;SDS011;2902;42.130;24.732;2024-01-30T03:31:26;19.03;;;8.57;;
5754;SDS011;2902;42.130;24.732;2024-01-30T03:33:53;9.33;;;8.13;;
5754;SDS011;2902;42.130;24.732;2024-01-30T03:36:19;12.20;;;8.57;;
5754;SDS011;2902;42.130;24.732;2024-01-30T03:38:46;10.00;;;9.00;;
5754;SDS011;2902;42.130;24.732;2024-01-30T03:41:13;11.97;;;8.77;;
5754;SDS011;2902;42.130;24.732;2024-01-30T03:43:40;11.60;;;9.30;;
5754;SDS011;2902;42.130;24.732;2024-01-30T03:46:06;14.90;;;9.20;;
5754;SDS011;2902;42.130;24.732;2024-01-30T03:48:34;9.50;;;8.57;;
5754;SDS011;2902;42.130;24.732;2024-01-30T03:51:02;10.33;;;9.23;;
5754;SDS011;2902;42.130;24.732;2024-01-30T03:53:28;13.30;;;9.50;;
5754;SDS011;2902;42.130;24.732;2024-01-30T03:55:55;10.80;;;9.43;;
5754;SDS011;2902;42.130;24.732;2024-01-30T03:58:22;9.60;;;8.50;;
5754;SDS011;2902;42.130;24.732;2024-01-30T04:00:49;9.17;;;7.80;;
5754;SDS011;2902;42.130;24.732;2024-01-30T04:03:16;9.33;;;8.37;;
5754;SDS011;2902;42.130;24.732;2024-01-30T04:05:45;8.30;;;7.50;;
5754;SDS011;2902;42.130;24.732;2024-01-30T04:08:11;10.53;;;8.00;;
5754;SDS011;2902;42.130;24.732;2024-01-30T04:10:38;12.57;;;8.73;;
5754;SDS011;2902;42.130;24.732;2024-01-30T04:13:06;13.30;;;9.07;;
5754;SDS011;2902;42.130;24.732;2024-01-30T04:15:33;13.67;;;9.57;;
5754;SDS011;2902;42.130;24.732;2024-01-30T04:18:00;10.07;;;9.17;;
5754;SDS011;2902;42.130;24.732;2024-01-30T04:20:26;10.17;;;9.17;;
5754;SDS011;2902;42.130;24.732;2024-01-30T04:22:55;9.53;;;8.47;;
5754;SDS011;2902;42.130;24.732;2024-01-30T04:25:21;9.63;;;8.67;;
5754;SDS011;2902;42.130;24.732;2024-01-30T04:27:48;10.77;;;8.97;;
5754;SDS011;2902;42.130;24.732;2024-01-30T04:30:15;10.77;;;9.67;;
5754;SDS011;2902;42.130;24.732;2024-01-30T04:32:42;13.07;;;10.37;;
5754;SDS011;2902;42.130;24.732;2024-01-30T04:35:09;14.20;;;9.80;;
5754;SDS011;2902;42.130;24.732;2024-01-30T04:37:36;12.43;;;10.67;;
5754;SDS011;2902;42.130;24.732;2024-01-30T04:40:05;13.53;;;10.87;;
5754;SDS011;2902;42.130;24.732;2024-01-30T04:42:33;19.47;;;12.90;;
5754;SDS011;2902;42.130;24.732;2024-01-30T04:45:00;19.77;;;12.63;;
5754;SDS011;2902;42.130;24.732;2024-01-30T04:47:27;21.63;;;12.97;;
5754;SDS011;2902;42.130;24.732;2024-01-30T04:49:54;16.53;;;12.47;;
5754;SDS011;2902;42.130;24.732;2024-01-30T04:52:21;16.07;;;11.67;;
5754;SDS011;2902;42.130;24.732;2024-01-30T04:54:48;18.77;;;11.93;;
5754;SDS011;2902;42.130;24.732;2024-01-30T04:57:16;15.27;;;11.30;;
5754;SDS011;2902;42.130;24.732;2024-01-30T04:59:43;19.37;;;10.90;;
5754;SDS011;2902;42.130;24.732;2024-01-30T05:02:09;16.97;;;10.23;;
5754;SDS011;2902;42.130;24.732;2024-01-30T05:04:36;21.40;;;10.53;;
5754;SDS011;2902;42.130;24.732;2024-01-30T05:07:03;21.20;;;11.70;;
5754;SDS011;2902;42.130;24.732;2024-01-30T05:09:30;28.30;;;13.07;;
5754;SDS011;2902;42.130;24.732;2024-01-30T05:11:56;27.40;;;14.37;;
5754;SDS011;2902;42.130;24.732;2024-01-30T05:14:25;26.70;;;13.03;;
5754;SDS011;2902;42.130;24.732;2024-01-30T05:16:52;17.20;;;11.60;;
5754;SDS011;2902;42.130;24.732;2024-01-30T05:19:18;22.07;;;11.77;;
5754;SDS011;2902;42.130;24.732;2024-01-30T05:21:46;22.97;;;14.00;;
5754;SDS011;2902;42.130;24.732;2024-01-30T05:24:13;17.53;;;11.33;;
5754;SDS011;2902;42.130;24.732;2024-01-30T05:26:40;19.60;;;11.73;;
5754;SDS011;2902;42.130;24.732;2024-01-30T05:29:06;18.00;;;12.87;;
5754;SDS011;2902;42.130;24.732;2024-01-30T05:31:35;23.33;;;11.70;;
5754;SDS011;2902;42.130;24.732;2024-01-30T05:34:01;23.07;;;13.03;;
5754;SDS011;2902;42.130;24.732;2024-01-30T05:36:28;29.43;;;14.43;;
5754;SDS011;2902;42.130;24.732;2024-01-30T05:38:55;32.23;;;17.10;;
5754;SDS011;2902;42.130;24.732;2024-01-30T05:41:22;24.07;;;12.80;;
5754;SDS011;2902;42.130;24.732;2024-01-30T05:43:49;21.10;;;13.77;;
5754;SDS011;2902;42.130;24.732;2024-01-30T05:46:15;21.97;;;13.10;;
5754;SDS011;2902;42.130;24.732;2024-01-30T05:48:43;17.70;;;12.80;;
5754;SDS011;2902;42.130;24.732;2024-01-30T05:51:10;21.50;;;12.93;;
5754;SDS011;2902;42.130;24.732;2024-01-30T05:53:37;21.27;;;12.53;;
5754;SDS011;2902;42.130;24.732;2024-01-30T05:56:04;34.53;;;16.27;;
5754;SDS011;2902;42.130;24.732;2024-01-30T05:58:31;18.47;;;11.93;;
5754;SDS011;2902;42.130;24.732;2024-01-30T06:00:58;19.27;;;12.70;;
5754;SDS011;2902;42.130;24.732;2024-01-30T06:03:25;27.07;;;13.63;;
5754;SDS011;2902;42.130;24.732;2024-01-30T06:05:53;22.90;;;12.83;;
5754;SDS011;2902;42.130;24.732;2024-01-30T06:08:19;22.73;;;13.97;;
5754;SDS011;2902;42.130;24.732;2024-01-30T06:10:46;30.20;;;13.43;;
5754;SDS011;2902;42.130;24.732;2024-01-30T06:13:13;26.00;;;14.50;;
5754;SDS011;2902;42.130;24.732;2024-01-30T06:15:39;26.87;;;13.33;;
5754;SDS011;2902;42.130;24.732;2024-01-30T06:18:06;27.50;;;13.47;;
5754;SDS011;2902;42.130;24.732;2024-01-30T06:20:33;23.13;;;13.00;;
5754;SDS011;2902;42.130;24.732;2024-01-30T06:23:01;20.83;;;12.77;;
5754;SDS011;2902;42.130;24.732;2024-01-30T06:25:27;24.97;;;12.07;;
5754;SDS011;2902;42.130;24.732;2024-01-30T06:27:54;32.37;;;14.60;;
5754;SDS011;2902;42.130;24.732;2024-01-30T06:30:21;17.67;;;12.07;;
5754;SDS011;2902;42.130;24.732;2024-01-30T06:32:48;21.47;;;10.47;;
5754;SDS011;2902;42.130;24.732;2024-01-30T06:35:14;22.40;;;10.53;;
5754;SDS011;2902;42.130;24.732;2024-01-30T06:37:42;24.03;;;10.73;;
5754;SDS011;2902;42.130;24.732;2024-01-30T06:40:11;19.33;;;11.73;;
5754;SDS011;2902;42.130;24.732;2024-01-30T06:42:38;16.67;;;12.03;;
5754;SDS011;2902;42.130;24.732;2024-01-30T06:45:05;18.90;;;10.93;;
5754;SDS011;2902;42.130;24.732;2024-01-30T06:47:33;13.63;;;10.33;;
5754;SDS011;2902;42.130;24.732;2024-01-30T06:49:59;19.23;;;11.13;;
5754;SDS011;2902;42.130;24.732;2024-01-30T06:52:27;19.50;;;11.97;;
5754;SDS011;2902;42.130;24.732;2024-01-30T06:54:54;21.73;;;11.90;;
5754;SDS011;2902;42.130;24.732;2024-01-30T06:57:22;15.50;;;12.00;;
5754;SDS011;2902;42.130;24.732;2024-01-30T06:59:48;26.27;;;12.37;;
5754;SDS011;2902;42.130;24.732;2024-01-30T07:02:15;17.80;;;10.90;;
5754;SDS011;2902;42.130;24.732;2024-01-30T07:04:42;17.20;;;12.17;;
5754;SDS011;2902;42.130;24.732;2024-01-30T07:07:09;19.83;;;11.60;;
5754;SDS011;2902;42.130;24.732;2024-01-30T07:09:37;20.57;;;11.60;;
5754;SDS011;2902;42.130;24.732;2024-01-30T07:12:05;15.53;;;11.20;;
5754;SDS011;2902;42.130;24.732;2024-01-30T07:14:33;20.33;;;12.40;;
5754;SDS011;2902;42.130;24.732;2024-01-30T07:17:00;24.03;;;11.80;;
5754;SDS011;2902;42.130;24.732;2024-01-30T07:19:27;32.50;;;11.90;;
5754;SDS011;2902;42.130;24.732;2024-01-30T07:21:54;32.00;;;14.60;;
5754;SDS011;2902;42.130;24.732;2024-01-30T07:24:21;26.77;;;11.47;;
5754;SDS011;2902;42.130;24.732;2024-01-30T07:26:47;18.83;;;11.80;;
5754;SDS011;2902;42.130;24.732;2024-01-30T07:29:14;21.87;;;12.30;;
5754;SDS011;2902;42.130;24.732;2024-01-30T07:31:42;22.30;;;14.47;;
5754;SDS011;2902;42.130;24.732;2024-01-30T07:34:09;20.10;;;12.33;;
5754;SDS011;2902;42.130;24.732;2024-01-30T07:36:35;32.63;;;15.03;;
5754;SDS011;2902;42.130;24.732;2024-01-30T07:39:02;22.97;;;12.40;;
5754;SDS011;2902;42.130;24.732;2024-01-30T07:41:29;32.87;;;23.93;;
5754;SDS011;2902;42.130;24.732;2024-01-30T07:43:56;26.53;;;12.93;;
5754;SDS011;2902;42.130;24.732;2024-01-30T07:46:23;21.37;;;13.53;;
5754;SDS011;2902;42.130;24.732;2024-01-30T07:48:51;25.17;;;15.67;;
5754;SDS011;2902;42.130;24.732;2024-01-30T07:51:18;28.57;;;13.77;;
5754;SDS011;2902;42.130;24.732;2024-01-30T07:53:51;29.80;;;14.70;;
5754;SDS011;2902;42.130;24.732;2024-01-30T07:56:18;17.47;;;9.50;;
5754;SDS011;2902;42.130;24.732;2024-01-30T07:58:44;17.03;;;10.30;;
5754;SDS011;2902;42.130;24.732;2024-01-30T08:01:11;14.87;;;9.90;;
5754;SDS011;2902;42.130;24.732;2024-01-30T08:03:38;14.73;;;9.60;;
5754;SDS011;2902;42.130;24.732;2024-01-30T08:06:08;32.93;;;9.77;;
5754;SDS011;2902;42.130;24.732;2024-01-30T08:08:35;9.23;;;8.07;;
5754;SDS011;2902;42.130;24.732;2024-01-30T08:11:03;9.77;;;8.80;;
5754;SDS011;2902;42.130;24.732;2024-01-30T08:13:30;14.07;;;8.77;;
5754;SDS011;2902;42.130;24.732;2024-01-30T08:15:56;7.43;;;6.73;;
5754;SDS011;2902;42.130;24.732;2024-01-30T08:18:23;18.03;;;11.00;;
5754;SDS011;2902;42.130;24.732;2024-01-30T08:20:50;11.57;;;8.80;;
5754;SDS011;2902;42.130;24.732;2024-01-30T08:23:18;9.47;;;7.60;;
5754;SDS011;2902;42.130;24.732;2024-01-30T08:25:44;11.97;;;7.70;;
5754;SDS011;2902;42.130;24.732;2024-01-30T08:28:11;11.90;;;10.33;;
5754;SDS011;2902;42.130;24.732;2024-01-30T08:30:38;21.10;;;9.57;;
5754;SDS011;2902;42.130;24.732;2024-01-30T08:33:05;24.97;;;9.50;;
5754;SDS011;2902;42.130;24.732;2024-01-30T08:35:32;14.57;;;10.00;;
5754;SDS011;2902;42.130;24.732;2024-01-30T08:37:59;28.67;;;16.00;;
5754;SDS011;2902;42.130;24.732;2024-01-30T08:40:27;15.03;;;11.30;;
5754;SDS011;2902;42.130;24.732;2024-01-30T08:42:54;18.27;;;9.97;;
5754;SDS011;2902;42.130;24.732;2024-01-30T08:45:21;9.33;;;8.40;;
5754;SDS011;2902;42.130;24.732;2024-01-30T08:47:48;26.23;;;8.30;;
5754;SDS011;2902;42.130;24.732;2024-01-30T08:50:15;9.93;;;7.10;;
5754;SDS011;2902;42.130;24.732;2024-01-30T08:52:42;7.13;;;6.43;;
5754;SDS011;2902;42.130;24.732;2024-01-30T08:55:08;9.07;;;6.37;;
5754;SDS011;2902;42.130;24.732;2024-01-30T08:57:36;12.07;;;6.77;;
5754;SDS011;2902;42.130;24.732;2024-01-30T09:00:04;10.63;;;6.50;;
5754;SDS011;2902;42.130;24.732;2024-01-30T09:02:34;7.23;;;6.53;;
5754;SDS011;2902;42.130;24.732;2024-01-30T09:05:01;8.47;;;6.23;;
5754;SDS011;2902;42.130;24.732;2024-01-30T09:07:27;11.73;;;6.70;;
5754;SDS011;2902;42.130;24.732;2024-01-30T09:09:54;19.00;;;9.63;;
5754;SDS011;2902;42.130;24.732;2024-01-30T09:12:21;16.53;;;9.27;;
5754;SDS011;2902;42.130;24.732;2024-01-30T09:14:49;11.60;;;7.53;;
5754;SDS011;2902;42.130;24.732;2024-01-30T09:17:15;10.93;;;7.73;;
5754;SDS011;2902;42.130;24.732;2024-01-30T09:19:42;16.20;;;9.37;;
5754;SDS011;2902;42.130;24.732;2024-01-30T09:22:09;36.40;;;9.57;;
5754;SDS011;2902;42.130;24.732;2024-01-30T09:24:36;15.00;;;8.70;;
5754;SDS011;2902;42.130;24.732;2024-01-30T09:27:02;12.20;;;7.93;;
5754;SDS011;2902;42.130;24.732;2024-01-30T09:29:29;10.87;;;8.20;;
5754;SDS011;2902;42.130;24.732;2024-01-30T09:31:57;11.17;;;9.47;;
5754;SDS011;2902;42.130;24.732;2024-01-30T09:34:24;14.37;;;9.70;;
5754;SDS011;2902;42.130;24.732;2024-01-30T09:36:51;19.90;;;8.67;;
5754;SDS011;2902;42.130;24.732;2024-01-30T09:39:18;10.27;;;9.10;;
5754;SDS011;2902;42.130;24.732;2024-01-30T09:41:47;13.00;;;9.73;;
5754;SDS011;2902;42.130;24.732;2024-01-30T09:44:15;15.83;;;8.63;;
5754;SDS011;2902;42.130;24.732;2024-01-30T09:46:42;12.57;;;8.97;;
5754;SDS011;2902;42.130;24.732;2024-01-30T09:49:14;12.63;;;9.70;;
5754;SDS011;2902;42.130;24.732;2024-01-30T09:51:42;13.13;;;10.40;;
5754;SDS011;2902;42.130;24.732;2024-01-30T09:54:10;10.43;;;8.53;;
5754;SDS011;2902;42.130;24.732;2024-01-30T09:56:40;9.80;;;8.90;;
5754;SDS011;2902;42.130;24.732;2024-01-30T09:59:06;10.17;;;9.17;;
5754;SDS011;2902;42.130;24.732;2024-01-30T10:01:34;15.87;;;10.30;;
5754;SDS011;2902;42.130;24.732;2024-01-30T10:04:01;14.83;;;10.53;;
5754;SDS011;2902;42.130;24.732;2024-01-30T10:06:29;13.53;;;10.07;;
5754;SDS011;2902;42.130;24.732;2024-01-30T10:08:56;14.83;;;8.47;;
5754;SDS011;2902;42.130;24.732;2024-01-30T10:11:23;19.77;;;9.83;;
5754;SDS011;2902;42.130;24.732;2024-01-30T10:13:49;9.73;;;8.10;;
5754;SDS011;2902;42.130;24.732;2024-01-30T10:16:16;16.27;;;8.23;;
5754;SDS011;2902;42.130;24.732;2024-01-30T10:18:43;26.10;;;7.90;;
5754;SDS011;2902;42.130;24.732;2024-01-30T10:21:09;9.40;;;7.70;;
5754;SDS011;2902;42.130;24.732;2024-01-30T10:23:38;15.77;;;7.73;;
5754;SDS011;2902;42.130;24.732;2024-01-30T10:26:04;11.90;;;7.60;;
5754;SDS011;2902;42.130;24.732;2024-01-30T10:28:33;11.77;;;8.33;;
5754;SDS011;2902;42.130;24.732;2024-01-30T10:31:00;11.20;;;7.30;;
5754;SDS011;2902;42.130;24.732;2024-01-30T10:33:28;25.30;;;8.10;;
5754;SDS011;2902;42.130;24.732;2024-01-30T10:35:55;13.10;;;7.97;;
5754;SDS011;2902;42.130;24.732;2024-01-30T10:38:27;9.03;;;7.93;;
5754;SDS011;2902;42.130;24.732;2024-01-30T10:40:58;16.40;;;8.80;;
5754;SDS011;2902;42.130;24.732;2024-01-30T10:43:28;25.87;;;11.70;;
5754;SDS011;2902;42.130;24.732;2024-01-30T10:45:59;17.80;;;11.10;;
5754;SDS011;2902;42.130;24.732;2024-01-30T10:48:33;9.67;;;7.83;;
5754;SDS011;2902;42.130;24.732;2024-01-30T10:51:05;8.00;;;7.20;;
5754;SDS011;2902;42.130;24.732;2024-01-30T10:53:32;9.57;;;6.27;;
5754;SDS011;2902;42.130;24.732;2024-01-30T10:56:02;7.63;;;6.17;;
5754;SDS011;2902;42.130;24.732;2024-01-30T10:58:30;6.30;;;5.70;;
5754;SDS011;2902;42.130;24.732;2024-01-30T11:00:56;16.23;;;6.83;;
5754;SDS011;2902;42.130;24.732;2024-01-30T11:03:24;7.10;;;6.27;;
5754;SDS011;2902;42.130;24.732;2024-01-30T11:05:51;9.43;;;6.37;;
5754;SDS011;2902;42.130;24.732;2024-01-30T11:08:24;9.77;;;7.17;;
5754;SDS011;2902;42.130;24.732;2024-01-30T11:10:55;11.77;;;7.50;;
5754;SDS011;2902;42.130;24.732;2024-01-30T11:13:26;7.37;;;5.83;;
5754;SDS011;2902;42.130;24.732;2024-01-30T11:15:53;5.93;;;5.43;;
5754;SDS011;2902;42.130;24.732;2024-01-30T11:18:22;8.90;;;5.03;;
5754;SDS011;2902;42.130;24.732;2024-01-30T11:20:50;9.87;;;5.33;;
5754;SDS011;2902;42.130;24.732;2024-01-30T11:23:17;5.37;;;4.90;;
5754;SDS011;2902;42.130;24.732;2024-01-30T11:25:44;5.43;;;4.90;;
5754;SDS011;2902;42.130;24.732;2024-01-30T11:28:12;13.03;;;5.83;;
5754;SDS011;2902;42.130;24.732;2024-01-30T11:30:42;7.63;;;4.60;;
5754;SDS011;2902;42.130;24.732;2024-01-30T11:33:09;5.70;;;5.23;;
5754;SDS011;2902;42.130;24.732;2024-01-30T11:35:37;8.80;;;5.87;;
5754;SDS011;2902;42.130;24.732;2024-01-30T11:38:06;5.80;;;4.50;;
5754;SDS011;2902;42.130;24.732;2024-01-30T11:40:33;5.37;;;4.97;;
5754;SDS011;2902;42.130;24.732;2024-01-30T11:43:03;11.87;;;5.47;;
5754;SDS011;2902;42.130;24.732;2024-01-30T11:45:31;6.43;;;5.23;;
5754;SDS011;2902;42.130;24.732;2024-01-30T11:48:00;8.67;;;6.37;;
5754;SDS011;2902;42.130;24.732;2024-01-30T11:50:28;5.50;;;4.93;;
5754;SDS011;2902;42.130;24.732;2024-01-30T11:52:55;3.97;;;3.77;;
5754;SDS011;2902;42.130;24.732;2024-01-30T11:55:23;5.70;;;3.50;;
5754;SDS011;2902;42.130;24.732;2024-01-30T11:57:50;42.13;;;5.83;;
5754;SDS011;2902;42.130;24.732;2024-01-30T12:00:17;4.35;;;3.70;;
5754;SDS011;2902;42.130;24.732;2024-01-30T12:02:48;9.23;;;3.43;;
5754;SDS011;2902;42.130;24.732;2024-01-30T12:05:18;5.73;;;5.23;;
5754;SDS011;2902;42.130;24.732;2024-01-30T12:07:45;4.10;;;3.80;;
5754;SDS011;2902;42.130;24.732;2024-01-30T12:10:12;5.77;;;5.37;;
5754;SDS011;2902;42.130;24.732;2024-01-30T12:12:39;5.77;;;3.53;;
5754;SDS011;2902;42.130;24.732;2024-01-30T12:15:08;6.23;;;3.53;;
5754;SDS011;2902;42.130;24.732;2024-01-30T12:17:35;4.07;;;3.67;;
5754;SDS011;2902;42.130;24.732;2024-01-30T12:20:03;5.27;;;3.07;;
5754;SDS011;2902;42.130;24.732;2024-01-30T12:22:33;4.00;;;3.70;;
5754;SDS011;2902;42.130;24.732;2024-01-30T12:25:02;4.17;;;3.80;;
5754;SDS011;2902;42.130;24.732;2024-01-30T12:27:30;4.43;;;4.13;;
5754;SDS011;2902;42.130;24.732;2024-01-30T12:29:57;4.03;;;3.80;;
5754;SDS011;2902;42.130;24.732;2024-01-30T12:32:24;8.13;;;3.87;;
5754;SDS011;2902;42.130;24.732;2024-01-30T12:34:54;5.97;;;3.70;;
5754;SDS011;2902;42.130;24.732;2024-01-30T12:37:21;5.13;;;4.60;;
5754;SDS011;2902;42.130;24.732;2024-01-30T12:39:51;5.20;;;4.50;;
5754;SDS011;2902;42.130;24.732;2024-01-30T12:42:19;4.60;;;3.83;;
5754;SDS011;2902;42.130;24.732;2024-01-30T12:44:46;4.63;;;4.23;;
5754;SDS011;2902;42.130;24.732;2024-01-30T12:47:12;5.20;;;4.90;;
5754;SDS011;2902;42.130;24.732;2024-01-30T12:49:41;4.13;;;3.83;;
5754;SDS011;2902;42.130;24.732;2024-01-30T12:52:08;3.77;;;3.47;;
5754;SDS011;2902;42.130;24.732;2024-01-30T12:54:35;3.83;;;3.63;;
5754;SDS011;2902;42.130;24.732;2024-01-30T12:57:03;5.70;;;4.00;;
5754;SDS011;2902;42.130;24.732;2024-01-30T12:59:30;4.40;;;4.10;;
5754;SDS011;2902;42.130;24.732;2024-01-30T13:01:58;4.50;;;4.20;;
5754;SDS011;2902;42.130;24.732;2024-01-30T13:04:26;4.33;;;4.03;;
5754;SDS011;2902;42.130;24.732;2024-01-30T13:06:53;28.53;;;10.83;;
5754;SDS011;2902;42.130;24.732;2024-01-30T13:09:20;6.80;;;6.20;;
5754;SDS011;2902;42.130;24.732;2024-01-30T13:11:47;5.30;;;4.80;;
5754;SDS011;2902;42.130;24.732;2024-01-30T13:14:15;5.07;;;4.77;;
5754;SDS011;2902;42.130;24.732;2024-01-30T13:16:42;6.03;;;5.23;;
5754;SDS011;2902;42.130;24.732;2024-01-30T13:19:09;6.17;;;4.50;;
5754;SDS011;2902;42.130;24.732;2024-01-30T13:21:36;4.70;;;4.30;;
5754;SDS011;2902;42.130;24.732;2024-01-30T13:24:02;14.23;;;5.43;;
5754;SDS011;2902;42.130;24.732;2024-01-30T13:26:31;7.87;;;4.97;;
5754;SDS011;2902;42.130;24.732;2024-01-30T13:28:58;5.07;;;4.60;;
5754;SDS011;2902;42.130;24.732;2024-01-30T13:31:26;11.33;;;5.40;;
5754;SDS011;2902;42.130;24.732;2024-01-30T13:33:53;6.03;;;4.67;;
5754;SDS011;2902;42.130;24.732;2024-01-30T13:36:20;5.70;;;3.93;;
5754;SDS011;2902;42.130;24.732;2024-01-30T13:38:47;6.13;;;5.30;;
5754;SDS011;2902;42.130;24.732;2024-01-30T13:41:14;8.30;;;4.83;;
5754;SDS011;2902;42.130;24.732;2024-01-30T13:43:41;5.73;;;5.03;;
5754;SDS011;2902;42.130;24.732;2024-01-30T13:46:09;5.57;;;5.17;;
5754;SDS011;2902;42.130;24.732;2024-01-30T13:48:37;7.07;;;5.37;;
5754;SDS011;2902;42.130;24.732;2024-01-30T13:51:04;5.20;;;4.70;;
5754;SDS011;2902;42.130;24.732;2024-01-30T13:53:31;4.87;;;4.57;;
5754;SDS011;2902;42.130;24.732;2024-01-30T13:55:58;5.80;;;5.13;;
5754;SDS011;2902;42.130;24.732;2024-01-30T13:58:25;6.33;;;4.37;;
5754;SDS011;2902;42.130;24.732;2024-01-30T14:00:52;4.93;;;4.60;;
5754;SDS011;2902;42.130;24.732;2024-01-30T14:03:19;4.80;;;4.50;;
5754;SDS011;2902;42.130;24.732;2024-01-30T14:05:47;6.17;;;4.43;;
5754;SDS011;2902;42.130;24.732;2024-01-30T14:08:14;5.67;;;5.00;;
5754;SDS011;2902;42.130;24.732;2024-01-30T14:10:41;5.00;;;4.50;;
5754;SDS011;2902;42.130;24.732;2024-01-30T14:13:08;5.53;;;5.03;;
5754;SDS011;2902;42.130;24.732;2024-01-30T14:15:36;6.03;;;4.57;;
5754;SDS011;2902;42.130;24.732;2024-01-30T14:18:03;12.50;;;8.37;;
5754;SDS011;2902;42.130;24.732;2024-01-30T14:20:30;8.90;;;8.00;;
5754;SDS011;2902;42.130;24.732;2024-01-30T14:22:58;6.30;;;5.47;;
5754;SDS011;2902;42.130;24.732;2024-01-30T14:25:25;5.77;;;5.20;;
5754;SDS011;2902;42.130;24.732;2024-01-30T14:27:52;6.67;;;5.23;;
5754;SDS011;2902;42.130;24.732;2024-01-30T14:30:19;7.13;;;6.57;;
5754;SDS011;2902;42.130;24.732;2024-01-30T14:32:45;6.20;;;5.60;;
5754;SDS011;2902;42.130;24.732;2024-01-30T14:35:13;5.10;;;4.73;;
5754;SDS011;2902;42.130;24.732;2024-01-30T14:37:40;5.97;;;5.13;;
5754;SDS011;2902;42.130;24.732;2024-01-30T14:40:08;6.07;;;5.67;;
5754;SDS011;2902;42.130;24.732;2024-01-30T14:42:35;12.27;;;4.63;;
5754;SDS011;2902;42.130;24.732;2024-01-30T14:45:03;10.43;;;7.63;;
5754;SDS011;2902;42.130;24.732;2024-01-30T14:47:30;5.83;;;5.20;;
5754;SDS011;2902;42.130;24.732;2024-01-30T14:49:57;7.10;;;6.40;;